Ana Sayfa
METAR-TAF:

METAR-TAF

Havaalanları :

Francistown, Botsvana

Enlem: 21-13S, Boylam: 027-30E, yükseklik: 1001 m

Güncel hava durumu gözlemi

Rapor saat 07:00 UTC de 16 dakika önce yapıldı.
Rüzgar doğudan 8 kt, doğu/kuzeydoğu ve doğu/güneydoğu arasında değişken
Sıcaklık 25°C
Nem 41%
Basınç 1022 hPa
Görüş mesafesi 10 km veya daha fazla
1500 m altında bulut yok ve kümülonimbus yok

METAR: FBFT 150700Z 10008KT 060V120 CAVOK 25/11 Q1022

Saat: 09:16 (07:16 UTC)

Tahmin

Rapor saat 03:00 UTC de 4 saat ve 16 dakika önce yapıldı.
Ayın 15'si saat 06 UTC'den ayın 15'si saat 15 UTC'ye kadar geçerli Tahmin
Rüzgar doğudan 15 kt
Görüş mesafesi 10 km veya daha fazla
1500 m altında bulut yok ve kümülonimbus yok

TAF: FBFT 150300Z 1506/1515 09015KT CAVOK

4.000'den fazla havaalanı için hava durumu gözlemleri ve tahminleri (METAR ve TAF raporları).

Kullanılabilir istasyonlar harita üzerinde sarı ve kırmızı noktalarla gösterilir.

İstasyonun adını görmek için fareyi noktanın üzerinde gezdirin.

Sonrasında hava gözlem ve tahminlerini görmek için tıklayın.

Haritayı değiştirmek için: yaklaştırmak için siyah artı işaretli yeşil düğmeye ve uzaklaştırmak için de eksi işaretli düğmeye hızla tıklayın; bitişik haritalar için yeşil okları kullanın.


METAR-TAF: